Time;durP1;ratioP1;P1;durP2;ratioP2;P2;SDS_P1;SDS_P2;PMS_P1;PMS_P2;Temp;Humidity;BMP_temperature;BMP_pressure;BME280_temperature;BME280_humidity;BME280_pressure;Samples;Min_cycle;Max_cycle;Signal;HPM_P1;HPM_P2
2022/07/03 00:00:12;;;;;;;3.50;1.77;;;;;;;;;;4990346;28;20209;-65
2022/07/03 00:02:56;;;;;;;2.60;1.57;;;;;;;;;;4981556;28;20280;-65
2022/07/03 00:05:29;;;;;;;3.80;2.00;;;;;;;;;;4990319;28;20188;-65
2022/07/03 00:08:01;;;;;;;7.13;1.87;;;;;;;;;;4973890;28;20197;-65
2022/07/03 00:10:31;;;;;;;3.83;1.80;;;;;;;;;;4973571;28;20583;-64
2022/07/03 00:13:02;;;;;;;3.73;1.80;;;;;;;;;;4973792;28;20266;-64
2022/07/03 00:15:32;;;;;;;3.37;1.73;;;;;;;;;;4983228;28;20586;-64
2022/07/03 00:18:06;;;;;;;2.63;1.83;;;;;;;;;;4972321;28;20239;-64
2022/07/03 00:20:39;;;;;;;3.67;1.63;;;;;;;;;;4987238;28;20216;-64
2022/07/03 00:23:14;;;;;;;3.80;1.80;;;;;;;;;;4987279;28;20645;-64
2022/07/03 00:25:44;;;;;;;3.80;1.73;;;;;;;;;;4971913;28;20246;-64
2022/07/03 00:28:20;;;;;;;3.47;1.63;;;;;;;;;;4986043;28;20223;-64
2022/07/03 00:30:51;;;;;;;1.87;1.67;;;;;;;;;;4985864;28;20234;-65
2022/07/03 00:33:27;;;;;;;2.63;1.77;;;;;;;;;;4988639;28;20208;-64
2022/07/03 00:35:58;;;;;;;4.43;1.50;;;;;;;;;;4989053;28;20220;-64
2022/07/03 00:38:29;;;;;;;2.73;1.73;;;;;;;;;;4971825;28;20219;-64
2022/07/03 00:41:04;;;;;;;3.03;1.80;;;;;;;;;;4982356;28;20247;-65
2022/07/03 00:43:36;;;;;;;2.60;1.50;;;;;;;;;;4952751;28;20197;-64
2022/07/03 00:46:15;;;;;;;3.53;1.60;;;;;;;;;;4988951;28;20951;-64
2022/07/03 00:48:46;;;;;;;2.13;1.50;;;;;;;;;;4988597;28;20637;-64
2022/07/03 00:51:19;;;;;;;3.17;1.73;;;;;;;;;;4951043;28;20262;-64
2022/07/03 00:53:59;;;;;;;4.37;1.60;;;;;;;;;;4988675;28;20695;-65
2022/07/03 00:56:32;;;;;;;2.37;1.60;;;;;;;;;;4989077;28;20196;-65
2022/07/03 00:59:02;;;;;;;3.10;1.50;;;;;;;;;;4986493;28;20304;-65
2022/07/03 01:01:32;;;;;;;3.97;1.87;;;;;;;;;;4988693;28;20669;-64
2022/07/03 01:04:12;;;;;;;1.67;1.57;;;;;;;;;;4964788;28;20549;-64
2022/07/03 01:06:52;;;;;;;2.10;1.50;;;;;;;;;;4972124;28;20200;-64
2022/07/03 01:09:31;;;;;;;4.13;1.63;;;;;;;;;;4989689;28;20207;-64
2022/07/03 01:12:19;;;;;;;3.30;1.80;;;;;;;;;;4988071;28;20546;-64
2022/07/03 01:14:54;;;;;;;2.97;1.50;;;;;;;;;;4984597;28;20223;-64
2022/07/03 01:17:55;;;;;;;2.00;1.53;;;;;;;;;;4988326;28;20203;-65
2022/07/03 01:20:30;;;;;;;1.57;1.27;;;;;;;;;;4946047;28;20248;-64
2022/07/03 01:23:04;;;;;;;2.83;1.73;;;;;;;;;;4985063;28;20203;-64
2022/07/03 01:25:50;;;;;;;3.63;1.53;;;;;;;;;;4972590;28;20643;-65
2022/07/03 01:28:23;;;;;;;3.30;1.50;;;;;;;;;;4966589;28;20220;-65
2022/07/03 01:30:58;;;;;;;1.87;1.20;;;;;;;;;;4986370;28;20641;-64
2022/07/03 01:33:34;;;;;;;2.30;1.27;;;;;;;;;;4986808;28;20579;-64
2022/07/03 01:36:15;;;;;;;2.03;1.47;;;;;;;;;;4988324;28;20206;-64
2022/07/03 01:38:46;;;;;;;2.37;1.70;;;;;;;;;;4960480;28;20545;-65
2022/07/03 01:41:32;;;;;;;3.07;1.30;;;;;;;;;;4948066;28;20717;-64
2022/07/03 01:44:04;;;;;;;2.43;1.50;;;;;;;;;;4988110;28;20204;-64
2022/07/03 01:46:33;;;;;;;2.50;1.50;;;;;;;;;;4953122;28;20208;-64
2022/07/03 01:49:11;;;;;;;1.97;1.40;;;;;;;;;;4966819;28;20250;-65
2022/07/03 01:51:45;;;;;;;2.70;1.40;;;;;;;;;;4962984;28;20644;-65
2022/07/03 01:54:31;;;;;;;2.40;1.47;;;;;;;;;;4987004;28;20215;-65
2022/07/03 01:57:09;;;;;;;1.80;1.63;;;;;;;;;;4985065;28;20191;-64
2022/07/03 01:59:44;;;;;;;1.23;1.13;;;;;;;;;;4972238;28;20196;-64
2022/07/03 02:02:37;;;;;;;1.53;1.40;;;;;;;;;;4958367;28;20356;-65
2022/07/03 02:05:15;;;;;;;2.67;1.43;;;;;;;;;;4972487;28;20649;-64
2022/07/03 02:07:58;;;;;;;2.57;1.40;;;;;;;;;;4988589;28;20203;-65
2022/07/03 02:10:32;;;;;;;2.40;1.47;;;;;;;;;;4988017;28;20206;-65
2022/07/03 02:13:08;;;;;;;1.63;1.20;;;;;;;;;;4984943;28;20188;-65
2022/07/03 02:15:47;;;;;;;1.33;1.20;;;;;;;;;;4967516;28;20711;-64
2022/07/03 02:18:24;;;;;;;2.93;1.50;;;;;;;;;;4987262;28;20243;-64
2022/07/03 02:21:15;;;;;;;1.90;1.70;;;;;;;;;;4981847;28;20212;-65
2022/07/03 02:24:04;;;;;;;41.07;9.77;;;;;;;;;;4986452;28;20237;-65
2022/07/03 02:26:44;;;;;;;47.10;12.33;;;;;;;;;;4985619;28;20212;-65
2022/07/03 02:29:16;;;;;;;45.10;11.83;;;;;;;;;;4983469;28;20208;-65
2022/07/03 02:31:54;;;;;;;52.57;13.93;;;;;;;;;;4990935;28;20196;-65
2022/07/03 02:34:25;;;;;;;37.33;10.90;;;;;;;;;;4968847;28;20384;-65
2022/07/03 02:36:59;;;;;;;35.50;10.33;;;;;;;;;;4967401;28;20208;-65
2022/07/03 02:39:35;;;;;;;33.40;9.93;;;;;;;;;;4985939;28;20216;-65
2022/07/03 02:42:16;;;;;;;26.77;9.37;;;;;;;;;;4988890;28;20216;-65
2022/07/03 02:44:46;;;;;;;24.87;8.07;;;;;;;;;;4990479;28;20193;-65
2022/07/03 02:47:46;;;;;;;25.20;9.07;;;;;;;;;;4975737;28;20220;-65
2022/07/03 02:50:22;;;;;;;17.27;6.97;;;;;;;;;;4989191;28;20199;-65
2022/07/03 02:53:04;;;;;;;17.77;6.93;;;;;;;;;;4968732;28;20649;-65
2022/07/03 02:55:46;;;;;;;21.43;6.57;;;;;;;;;;4990231;28;20200;-65
2022/07/03 02:58:19;;;;;;;18.77;6.07;;;;;;;;;;4973658;28;20191;-65
2022/07/03 03:00:55;;;;;;;13.67;5.47;;;;;;;;;;4985522;28;20216;-65
2022/07/03 03:03:28;;;;;;;14.70;5.53;;;;;;;;;;4984151;28;20231;-65
2022/07/03 03:06:03;;;;;;;15.07;6.17;;;;;;;;;;4974860;28;20273;-65
2022/07/03 03:08:45;;;;;;;15.27;5.43;;;;;;;;;;4990690;28;20664;-65
2022/07/03 03:11:25;;;;;;;10.37;4.37;;;;;;;;;;4971337;28;20263;-65
2022/07/03 03:13:58;;;;;;;12.53;4.63;;;;;;;;;;4989888;28;20205;-65
2022/07/03 03:16:31;;;;;;;12.07;4.73;;;;;;;;;;4966726;28;20259;-65
2022/07/03 03:19:01;;;;;;;12.23;4.63;;;;;;;;;;4988006;28;20247;-65
2022/07/03 03:21:34;;;;;;;7.67;4.50;;;;;;;;;;4989644;28;20709;-65
2022/07/03 03:24:05;;;;;;;7.63;3.80;;;;;;;;;;4989221;28;20199;-65
2022/07/03 03:26:36;;;;;;;12.10;4.27;;;;;;;;;;4990582;28;20252;-65
2022/07/03 03:29:06;;;;;;;6.93;3.70;;;;;;;;;;4969059;28;20193;-65
2022/07/03 03:31:37;;;;;;;5.33;3.50;;;;;;;;;;4973160;28;20224;-65
2022/07/03 03:34:11;;;;;;;6.67;3.67;;;;;;;;;;4989869;28;20208;-65
2022/07/03 03:36:41;;;;;;;5.87;3.23;;;;;;;;;;4990202;28;20267;-65
2022/07/03 03:39:16;;;;;;;6.00;3.43;;;;;;;;;;4969033;28;20212;-65
2022/07/03 03:41:44;;;;;;;6.00;3.03;;;;;;;;;;4990848;28;20228;-65
2022/07/03 03:44:17;;;;;;;5.30;3.00;;;;;;;;;;4990016;28;20188;-65
2022/07/03 03:46:54;;;;;;;3.67;2.80;;;;;;;;;;4988118;28;20598;-65
2022/07/03 03:49:30;;;;;;;4.30;3.20;;;;;;;;;;4988307;28;20251;-65
2022/07/03 03:52:01;;;;;;;7.00;2.83;;;;;;;;;;4984760;28;20298;-65
2022/07/03 03:54:34;;;;;;;4.03;2.80;;;;;;;;;;4990232;28;20822;-65
2022/07/03 03:57:20;;;;;;;3.77;3.03;;;;;;;;;;4987531;28;20202;-65
2022/07/03 03:59:50;;;;;;;5.53;2.70;;;;;;;;;;4966954;28;20209;-65
2022/07/03 04:02:22;;;;;;;4.23;2.37;;;;;;;;;;4987404;28;20271;-65
2022/07/03 04:04:58;;;;;;;4.73;2.40;;;;;;;;;;4981459;28;20196;-65
2022/07/03 04:07:34;;;;;;;5.10;2.30;;;;;;;;;;4972660;28;20234;-65
2022/07/03 04:10:05;;;;;;;4.43;2.40;;;;;;;;;;4973199;28;20637;-65
2022/07/03 04:12:35;;;;;;;2.47;2.20;;;;;;;;;;4984195;28;20787;-65
2022/07/03 04:15:05;;;;;;;3.53;2.43;;;;;;;;;;4964317;28;20625;-64
2022/07/03 04:17:34;;;;;;;3.80;1.97;;;;;;;;;;4987334;28;20246;-65
2022/07/03 04:20:04;;;;;;;3.30;1.93;;;;;;;;;;4987519;28;20282;-65
2022/07/03 04:22:34;;;;;;;2.53;1.97;;;;;;;;;;4973218;28;20266;-65
2022/07/03 04:25:07;;;;;;;3.70;1.80;;;;;;;;;;4975490;28;20188;-65
2022/07/03 04:27:38;;;;;;;4.30;2.27;;;;;;;;;;4986679;28;20201;-64
2022/07/03 04:30:29;;;;;;;3.73;2.07;;;;;;;;;;4988279;28;20192;-65
2022/07/03 04:33:01;;;;;;;8.43;1.60;;;;;;;;;;4970229;28;20215;-65
2022/07/03 04:35:32;;;;;;;2.97;1.60;;;;;;;;;;4989263;28;20625;-65
2022/07/03 04:38:04;;;;;;;2.60;1.60;;;;;;;;;;4989411;28;20208;-65
2022/07/03 04:40:36;;;;;;;4.37;1.90;;;;;;;;;;4986756;28;20227;-65
2022/07/03 04:43:05;;;;;;;1.97;1.60;;;;;;;;;;4986644;28;20873;-65
2022/07/03 04:45:35;;;;;;;4.53;1.70;;;;;;;;;;4989444;28;20196;-65
2022/07/03 04:48:07;;;;;;;2.83;1.67;;;;;;;;;;4989418;28;20208;-64
2022/07/03 04:50:41;;;;;;;3.90;1.50;;;;;;;;;;4989178;28;20206;-65
2022/07/03 04:53:09;;;;;;;4.07;1.70;;;;;;;;;;4961352;28;20212;-64
2022/07/03 04:55:38;;;;;;;2.00;1.63;;;;;;;;;;4987405;28;20205;-64
2022/07/03 04:58:09;;;;;;;2.43;1.77;;;;;;;;;;4983222;28;20196;-65
2022/07/03 05:00:40;;;;;;;1.87;1.60;;;;;;;;;;4988084;28;20201;-65
2022/07/03 05:03:12;;;;;;;2.23;1.57;;;;;;;;;;4967613;28;20271;-65
2022/07/03 05:05:43;;;;;;;2.90;1.67;;;;;;;;;;4972481;28;20201;-65
2022/07/03 05:08:14;;;;;;;1.63;1.50;;;;;;;;;;4988329;28;20779;-66
2022/07/03 05:10:49;;;;;;;1.63;1.20;;;;;;;;;;4969388;28;20207;-65
2022/07/03 05:13:19;;;;;;;6.33;1.77;;;;;;;;;;4986691;28;20287;-65
2022/07/03 05:15:51;;;;;;;2.13;1.57;;;;;;;;;;4968104;28;20207;-66
2022/07/03 05:18:19;;;;;;;1.43;1.33;;;;;;;;;;4988500;28;20450;-66
2022/07/03 05:20:50;;;;;;;1.33;1.23;;;;;;;;;;4987224;28;20188;-65
2022/07/03 05:23:21;;;;;;;5.13;1.73;;;;;;;;;;4986889;28;20243;-65
2022/07/03 05:25:55;;;;;;;1.73;1.50;;;;;;;;;;4988570;28;20211;-65
2022/07/03 05:28:25;;;;;;;1.70;1.40;;;;;;;;;;4984527;28;20212;-66
2022/07/03 05:30:53;;;;;;;1.77;1.30;;;;;;;;;;4968935;28;20197;-66
2022/07/03 05:33:26;;;;;;;1.33;1.17;;;;;;;;;;4954000;28;20201;-66
2022/07/03 05:36:12;;;;;;;2.23;1.53;;;;;;;;;;4986807;28;20196;-65
2022/07/03 05:41:31;;;;;;;2.20;1.70;;;;;;;;;;4988492;28;20286;-65
2022/07/03 05:44:01;;;;;;;1.63;1.30;;;;;;;;;;4965266;28;20195;-64
2022/07/03 05:46:33;;;;;;;1.40;1.20;;;;;;;;;;4987404;28;20192;-65
2022/07/03 05:49:01;;;;;;;1.60;1.50;;;;;;;;;;4986847;28;20185;-65
2022/07/03 05:51:33;;;;;;;1.77;1.30;;;;;;;;;;4984071;28;20279;-65
2022/07/03 05:54:04;;;;;;;1.43;1.33;;;;;;;;;;4987984;28;20200;-65
2022/07/03 05:56:34;;;;;;;1.07;1.07;;;;;;;;;;4970658;28;20220;-65
2022/07/03 05:59:07;;;;;;;1.43;1.33;;;;;;;;;;4985822;28;20391;-66
2022/07/03 06:01:39;;;;;;;1.30;1.03;;;;;;;;;;4971264;28;20235;-65
2022/07/03 06:04:12;;;;;;;1.20;1.10;;;;;;;;;;4984241;28;20213;-66
2022/07/03 06:06:43;;;;;;;1.53;1.20;;;;;;;;;;4989335;28;20216;-65
2022/07/03 06:09:14;;;;;;;1.27;1.17;;;;;;;;;;4984983;28;20192;-65
2022/07/03 06:11:47;;;;;;;1.30;1.20;;;;;;;;;;4970067;28;20303;-64
2022/07/03 06:14:18;;;;;;;1.33;1.23;;;;;;;;;;4974342;28;20234;-65
2022/07/03 06:16:47;;;;;;;1.20;1.10;;;;;;;;;;4983460;28;20212;-65
2022/07/03 06:19:19;;;;;;;1.47;1.17;;;;;;;;;;4991387;28;20654;-65
2022/07/03 06:21:49;;;;;;;1.93;1.00;;;;;;;;;;4991669;28;20515;-65
2022/07/03 06:24:20;;;;;;;1.30;1.20;;;;;;;;;;4992139;28;20192;-64
2022/07/03 06:26:49;;;;;;;1.40;1.30;;;;;;;;;;4984787;28;20694;-65
2022/07/03 06:29:20;;;;;;;1.47;1.13;;;;;;;;;;4991051;28;20810;-65
2022/07/03 06:31:53;;;;;;;1.20;1.10;;;;;;;;;;4991728;28;20207;-65
2022/07/03 06:34:23;;;;;;;1.50;1.27;;;;;;;;;;4974265;28;20286;-65
2022/07/03 06:36:54;;;;;;;1.60;1.13;;;;;;;;;;4989618;28;20196;-65
2022/07/03 06:39:26;;;;;;;1.07;1.07;;;;;;;;;;4988065;28;20236;-65
2022/07/03 06:41:55;;;;;;;1.30;1.10;;;;;;;;;;4990750;28;20232;-65
2022/07/03 06:44:27;;;;;;;1.40;1.30;;;;;;;;;;4991139;28;20216;-65
2022/07/03 06:46:58;;;;;;;1.10;1.00;;;;;;;;;;4975748;28;20208;-64
2022/07/03 06:49:25;;;;;;;1.23;1.07;;;;;;;;;;4974923;28;20610;-65
2022/07/03 06:51:54;;;;;;;1.67;1.20;;;;;;;;;;4970268;28;20236;-65
2022/07/03 06:54:25;;;;;;;1.33;1.07;;;;;;;;;;4990511;28;20219;-65
2022/07/03 06:56:55;;;;;;;1.60;1.07;;;;;;;;;;4988729;28;20208;-64
2022/07/03 06:59:27;;;;;;;1.37;1.20;;;;;;;;;;4990918;28;20232;-65
2022/07/03 07:01:58;;;;;;;1.40;1.07;;;;;;;;;;4988111;28;20220;-65
2022/07/03 07:04:30;;;;;;;2.07;1.37;;;;;;;;;;4970917;28;20637;-65
2022/07/03 07:07:00;;;;;;;0.93;0.90;;;;;;;;;;4956019;28;20228;-66
2022/07/03 07:09:29;;;;;;;1.63;1.07;;;;;;;;;;4973633;28;20184;-66
2022/07/03 07:12:01;;;;;;;1.30;0.97;;;;;;;;;;4974276;28;20248;-65
2022/07/03 07:14:33;;;;;;;0.90;0.90;;;;;;;;;;4990486;28;20200;-65
2022/07/03 07:17:04;;;;;;;2.43;1.20;;;;;;;;;;4982411;28;20209;-65
2022/07/03 07:19:35;;;;;;;1.33;1.00;;;;;;;;;;4973887;28;20240;-65
2022/07/03 07:22:05;;;;;;;1.47;1.00;;;;;;;;;;4970339;28;20228;-65
2022/07/03 07:24:36;;;;;;;1.83;1.30;;;;;;;;;;4989705;28;20684;-65
2022/07/03 07:27:08;;;;;;;1.00;1.00;;;;;;;;;;4983781;28;26309;-65
2022/07/03 07:29:39;;;;;;;1.40;1.00;;;;;;;;;;4991358;28;20262;-65
2022/07/03 07:32:11;;;;;;;1.70;1.10;;;;;;;;;;4990056;28;20200;-65
2022/07/03 07:34:42;;;;;;;1.27;0.97;;;;;;;;;;4990540;28;20197;-65
2022/07/03 07:37:13;;;;;;;1.53;1.13;;;;;;;;;;4989000;28;20858;-65
2022/07/03 07:39:46;;;;;;;1.57;1.00;;;;;;;;;;4965474;28;20216;-65
2022/07/03 07:42:16;;;;;;;1.20;1.00;;;;;;;;;;4989138;28;20795;-65
2022/07/03 07:44:50;;;;;;;0.93;0.80;;;;;;;;;;4988712;28;20672;-65
2022/07/03 07:47:20;;;;;;;0.97;0.80;;;;;;;;;;4989871;28;20188;-66
2022/07/03 07:49:49;;;;;;;1.27;0.80;;;;;;;;;;4967823;28;20637;-65
2022/07/03 07:52:22;;;;;;;1.10;0.80;;;;;;;;;;4980973;28;20303;-65
2022/07/03 07:54:54;;;;;;;1.83;0.80;;;;;;;;;;4985621;28;20203;-65
2022/07/03 07:57:26;;;;;;;1.60;1.20;;;;;;;;;;4989176;28;20227;-65
2022/07/03 08:00:00;;;;;;;1.20;1.10;;;;;;;;;;4974090;28;20202;-65
2022/07/03 08:05:37;;;;;;;1.03;0.87;;;;;;;;;;4989168;28;20196;-65
2022/07/03 08:08:12;;;;;;;1.37;0.90;;;;;;;;;;4989010;28;20239;-65
2022/07/03 08:10:46;;;;;;;1.30;0.80;;;;;;;;;;4956337;28;20328;-65
2022/07/03 08:13:23;;;;;;;0.80;0.80;;;;;;;;;;4987542;28;20751;-65
2022/07/03 08:15:53;;;;;;;1.17;0.90;;;;;;;;;;4984795;28;20652;-65
2022/07/03 08:18:26;;;;;;;1.40;0.80;;;;;;;;;;4988076;28;20302;-65
2022/07/03 08:21:00;;;;;;;1.97;0.87;;;;;;;;;;4968318;28;20196;-65
2022/07/03 08:23:29;;;;;;;0.83;0.80;;;;;;;;;;4989218;28;20216;-65
2022/07/03 08:26:01;;;;;;;1.20;0.83;;;;;;;;;;4988385;28;20185;-65
2022/07/03 08:28:31;;;;;;;0.80;0.80;;;;;;;;;;4969199;28;20208;-65
2022/07/03 08:31:02;;;;;;;2.27;1.03;;;;;;;;;;4969480;28;20196;-65
2022/07/03 08:33:34;;;;;;;0.90;0.70;;;;;;;;;;4987146;28;20208;-65
2022/07/03 08:36:08;;;;;;;1.83;0.90;;;;;;;;;;4969297;28;20633;-65
2022/07/03 08:38:40;;;;;;;1.10;0.80;;;;;;;;;;4988000;28;20212;-65
2022/07/03 08:41:11;;;;;;;1.73;1.00;;;;;;;;;;4979146;28;20212;-65
2022/07/03 08:43:44;;;;;;;0.80;0.80;;;;;;;;;;4986839;28;20298;-64
2022/07/03 08:46:17;;;;;;;1.23;0.87;;;;;;;;;;4987278;28;20646;-64
2022/07/03 08:48:47;;;;;;;0.90;0.90;;;;;;;;;;4998543;28;20198;-65
2022/07/03 08:51:22;;;;;;;2.00;0.90;;;;;;;;;;4961849;28;20299;-65
2022/07/03 08:53:55;;;;;;;2.23;0.90;;;;;;;;;;4971055;28;20204;-65
2022/07/03 08:56:23;;;;;;;1.17;0.90;;;;;;;;;;4970351;28;20228;-64
2022/07/03 08:58:57;;;;;;;0.80;0.80;;;;;;;;;;4966671;28;20553;-65
2022/07/03 09:01:29;;;;;;;1.00;0.90;;;;;;;;;;4970498;28;20221;-65
2022/07/03 09:03:59;;;;;;;1.30;1.07;;;;;;;;;;4983823;28;20314;-65
2022/07/03 09:06:51;;;;;;;1.30;0.87;;;;;;;;;;4971649;28;20210;-65
2022/07/03 09:09:25;;;;;;;3.43;1.03;;;;;;;;;;4987648;28;20645;-65
2022/07/03 09:11:54;;;;;;;1.33;1.00;;;;;;;;;;4968831;28;20210;-65
2022/07/03 09:14:26;;;;;;;1.63;1.20;;;;;;;;;;4984567;28;20184;-65
2022/07/03 09:16:56;;;;;;;3.00;1.50;;;;;;;;;;4983438;28;20200;-65
2022/07/03 09:19:50;;;;;;;1.30;1.20;;;;;;;;;;4987642;28;20246;-65
2022/07/03 09:22:29;;;;;;;2.33;1.13;;;;;;;;;;4988694;28;20214;-65
2022/07/03 09:25:15;;;;;;;1.57;1.13;;;;;;;;;;5000330;28;20204;-65
2022/07/03 09:27:56;;;;;;;5.13;1.73;;;;;;;;;;4981313;28;20247;-65
2022/07/03 09:30:39;;;;;;;2.00;1.40;;;;;;;;;;4999441;28;20287;-65
2022/07/03 09:33:11;;;;;;;1.97;1.60;;;;;;;;;;4982378;28;20196;-65
2022/07/03 09:36:01;;;;;;;2.23;1.60;;;;;;;;;;4988049;28;20227;-65
2022/07/03 09:38:32;;;;;;;2.37;1.43;;;;;;;;;;4960443;28;20240;-65
2022/07/03 09:41:01;;;;;;;2.20;1.40;;;;;;;;;;4980828;28;20662;-66
2022/07/03 09:43:32;;;;;;;2.07;1.40;;;;;;;;;;4986525;28;20622;-65
2022/07/03 09:46:06;;;;;;;3.33;1.40;;;;;;;;;;4984746;28;20202;-65
2022/07/03 09:48:45;;;;;;;2.13;1.60;;;;;;;;;;4983831;28;20266;-65
2022/07/03 09:51:29;;;;;;;2.00;1.40;;;;;;;;;;4956515;28;20235;-65
2022/07/03 09:54:03;;;;;;;1.37;1.23;;;;;;;;;;4987265;28;20205;-65
2022/07/03 09:56:39;;;;;;;1.33;1.23;;;;;;;;;;4971127;28;20599;-65
2022/07/03 09:59:15;;;;;;;2.03;1.40;;;;;;;;;;4984177;28;20204;-65
2022/07/03 10:01:48;;;;;;;2.60;1.53;;;;;;;;;;4980561;28;20215;-65
2022/07/03 10:04:25;;;;;;;3.17;1.90;;;;;;;;;;4984227;28;20772;-65
2022/07/03 10:07:00;;;;;;;2.40;1.40;;;;;;;;;;4987133;28;20283;-64
2022/07/03 10:09:34;;;;;;;1.40;1.27;;;;;;;;;;4970664;28;20215;-65
2022/07/03 10:12:04;;;;;;;2.23;1.20;;;;;;;;;;4990489;28;20275;-65
2022/07/03 10:14:34;;;;;;;4.20;1.43;;;;;;;;;;4999107;28;20197;-63
2022/07/03 10:17:06;;;;;;;3.83;1.50;;;;;;;;;;4981174;28;20216;-63
2022/07/03 10:19:49;;;;;;;3.53;1.73;;;;;;;;;;4987297;28;20605;-62
2022/07/03 10:22:37;;;;;;;3.00;1.73;;;;;;;;;;4986769;28;20200;-62
2022/07/03 10:25:09;;;;;;;5.57;1.80;;;;;;;;;;4982208;28;20204;-64
2022/07/03 10:27:43;;;;;;;2.97;1.97;;;;;;;;;;4984652;28;20213;-68
2022/07/03 10:30:15;;;;;;;3.27;1.63;;;;;;;;;;4988493;28;20609;-64
2022/07/03 10:32:47;;;;;;;3.07;2.03;;;;;;;;;;4986648;28;20192;-65
2022/07/03 10:35:17;;;;;;;9.20;1.90;;;;;;;;;;4982310;28;20232;-67
2022/07/03 10:38:19;;;;;;;2.70;1.57;;;;;;;;;;4988759;28;20212;-66
2022/07/03 10:46:54;;;;;;;4.57;1.80;;;;;;;;;;4981760;28;20259;-62
2022/07/03 10:49:30;;;;;;;3.00;1.77;;;;;;;;;;4987161;28;20192;-63
2022/07/03 10:52:02;;;;;;;2.23;1.60;;;;;;;;;;4982101;28;20238;-65
2022/07/03 10:54:33;;;;;;;3.87;1.63;;;;;;;;;;4984166;28;20195;-65
2022/07/03 10:57:15;;;;;;;3.03;1.73;;;;;;;;;;4982771;28;20282;-64
2022/07/03 10:59:45;;;;;;;3.77;1.80;;;;;;;;;;4971993;28;20286;-63
2022/07/03 11:02:42;;;;;;;2.17;1.20;;;;;;;;;;4970419;28;20188;-64
2022/07/03 11:05:20;;;;;;;2.80;1.53;;;;;;;;;;4986735;28;20282;-64
2022/07/03 11:08:00;;;;;;;2.63;1.30;;;;;;;;;;4990034;28;20204;-65
2022/07/03 11:10:32;;;;;;;2.80;1.50;;;;;;;;;;4981241;28;20441;-65
2022/07/03 11:13:10;;;;;;;2.03;1.50;;;;;;;;;;4984397;28;20192;-67
2022/07/03 11:15:52;;;;;;;2.00;1.40;;;;;;;;;;4985157;28;20226;-65
2022/07/03 11:18:36;;;;;;;3.63;1.97;;;;;;;;;;4988913;28;20594;-65
2022/07/03 11:21:26;;;;;;;2.37;1.33;;;;;;;;;;4986504;28;20873;-64
2022/07/03 11:24:10;;;;;;;2.00;1.40;;;;;;;;;;4990802;28;20599;-64
2022/07/03 11:26:40;;;;;;;1.87;1.30;;;;;;;;;;4987767;28;20272;-64
2022/07/03 11:29:30;;;;;;;2.20;1.37;;;;;;;;;;4983372;28;20716;-64
2022/07/03 11:32:20;;;;;;;1.57;1.27;;;;;;;;;;4988684;28;20279;-64
2022/07/03 11:34:50;;;;;;;2.93;1.20;;;;;;;;;;4982196;28;20205;-63
2022/07/03 11:37:22;;;;;;;1.97;1.37;;;;;;;;;;4989569;28;20267;-63
2022/07/03 11:39:57;;;;;;;2.53;1.63;;;;;;;;;;4985438;28;20212;-64
2022/07/03 11:42:35;;;;;;;1.67;0.97;;;;;;;;;;4984334;28;20208;-64
2022/07/03 11:45:06;;;;;;;2.07;1.30;;;;;;;;;;4968202;28;20216;-63
2022/07/03 11:47:37;;;;;;;2.17;1.20;;;;;;;;;;4989365;28;20204;-63
2022/07/03 11:50:08;;;;;;;2.00;1.17;;;;;;;;;;4970344;28;20205;-63
2022/07/03 11:52:42;;;;;;;2.93;1.30;;;;;;;;;;4982045;28;20677;-63
2022/07/03 11:55:11;;;;;;;1.43;1.07;;;;;;;;;;4987243;28;20195;-63
2022/07/03 11:57:58;;;;;;;1.23;1.10;;;;;;;;;;4989085;28;20193;-62
2022/07/03 12:00:31;;;;;;;2.50;1.20;;;;;;;;;;4968044;28;20231;-63
2022/07/03 12:03:07;;;;;;;1.20;1.00;;;;;;;;;;4993585;28;20787;-63
2022/07/03 12:05:36;;;;;;;1.73;1.30;;;;;;;;;;4989330;28;20621;-63
2022/07/03 12:08:07;;;;;;;1.50;0.93;;;;;;;;;;5001727;28;20204;-63
2022/07/03 12:10:42;;;;;;;1.67;1.20;;;;;;;;;;4987655;28;20197;-63
2022/07/03 12:13:30;;;;;;;1.27;1.07;;;;;;;;;;4984725;28;20688;-63
2022/07/03 12:16:04;;;;;;;1.03;0.80;;;;;;;;;;4980295;28;20205;-62
2022/07/03 12:18:58;;;;;;;1.30;1.20;;;;;;;;;;4968724;28;20236;-63
2022/07/03 12:21:32;;;;;;;1.00;0.90;;;;;;;;;;4987822;28;20192;-62
2022/07/03 12:24:16;;;;;;;1.17;1.00;;;;;;;;;;5000022;28;20299;-63
2022/07/03 12:26:47;;;;;;;2.10;0.93;;;;;;;;;;5000279;28;20192;-62
2022/07/03 12:29:29;;;;;;;1.40;1.00;;;;;;;;;;4987751;28;20196;-62
2022/07/03 12:32:02;;;;;;;1.93;1.07;;;;;;;;;;4986058;28;20199;-63
2022/07/03 12:34:34;;;;;;;1.20;1.07;;;;;;;;;;4970880;28;20208;-63
2022/07/03 12:37:10;;;;;;;1.37;1.03;;;;;;;;;;4983683;28;20189;-63
2022/07/03 12:39:52;;;;;;;1.60;1.00;;;;;;;;;;4983239;28;20224;-63
2022/07/03 12:42:24;;;;;;;1.07;0.80;;;;;;;;;;4985146;28;20515;-63
2022/07/03 12:44:58;;;;;;;0.97;0.80;;;;;;;;;;4983036;28;20665;-63
2022/07/03 12:47:33;;;;;;;1.27;1.07;;;;;;;;;;4985761;28;20193;-63
2022/07/03 12:50:05;;;;;;;1.07;1.00;;;;;;;;;;4986317;28;20247;-63
2022/07/03 12:52:55;;;;;;;1.87;1.00;;;;;;;;;;4981404;28;20246;-63
2022/07/03 12:55:28;;;;;;;1.40;0.80;;;;;;;;;;4986716;28;20196;-63
2022/07/03 13:01:05;;;;;;;2.97;1.10;;;;;;;;;;4984647;28;20192;-64
2022/07/03 13:03:40;;;;;;;3.73;1.20;;;;;;;;;;4984554;28;20236;-64
2022/07/03 13:06:24;;;;;;;5.23;1.20;;;;;;;;;;4987706;28;20200;-65
2022/07/03 13:09:05;;;;;;;4.80;1.17;;;;;;;;;;4984547;28;20582;-64
2022/07/03 13:11:38;;;;;;;2.60;1.00;;;;;;;;;;4987096;28;20255;-64
2022/07/03 13:14:16;;;;;;;2.70;1.13;;;;;;;;;;4956197;28;20253;-63
2022/07/03 13:16:47;;;;;;;2.77;0.90;;;;;;;;;;4983109;28;20220;-64
2022/07/03 13:19:28;;;;;;;2.27;1.00;;;;;;;;;;4981438;28;20239;-64
2022/07/03 13:21:58;;;;;;;1.57;0.80;;;;;;;;;;4987101;28;20224;-64
2022/07/03 13:24:30;;;;;;;2.13;1.00;;;;;;;;;;4989475;28;20216;-64
2022/07/03 13:27:04;;;;;;;1.20;0.90;;;;;;;;;;4983492;28;20691;-63
2022/07/03 13:29:42;;;;;;;1.33;0.77;;;;;;;;;;4988911;28;20464;-64
2022/07/03 13:32:10;;;;;;;1.73;1.00;;;;;;;;;;4985654;28;20216;-64
2022/07/03 13:34:42;;;;;;;1.03;0.83;;;;;;;;;;4985756;28;20210;-63
2022/07/03 13:37:12;;;;;;;2.03;0.70;;;;;;;;;;4967621;28;20799;-63
2022/07/03 13:39:42;;;;;;;1.30;0.90;;;;;;;;;;4985034;28;20520;-64
2022/07/03 13:42:13;;;;;;;2.10;1.00;;;;;;;;;;4969783;28;20594;-64
2022/07/03 13:44:42;;;;;;;1.53;0.80;;;;;;;;;;4968911;28;20319;-63
2022/07/03 13:47:13;;;;;;;1.27;0.87;;;;;;;;;;4985460;28;20221;-65
2022/07/03 13:49:50;;;;;;;1.50;0.70;;;;;;;;;;4979802;28;20196;-63
2022/07/03 13:52:20;;;;;;;1.43;0.97;;;;;;;;;;4965844;28;20212;-64
2022/07/03 13:54:49;;;;;;;0.80;0.80;;;;;;;;;;4985884;28;20200;-64
2022/07/03 13:57:22;;;;;;;1.07;0.73;;;;;;;;;;4984017;28;20583;-64
2022/07/03 13:59:55;;;;;;;1.87;1.10;;;;;;;;;;4986785;28;20235;-64
2022/07/03 14:02:28;;;;;;;1.07;0.77;;;;;;;;;;4987204;28;20200;-64
2022/07/03 14:05:00;;;;;;;2.00;0.80;;;;;;;;;;4980545;28;20643;-64
2022/07/03 14:07:31;;;;;;;1.23;0.80;;;;;;;;;;5000470;28;20295;-63
2022/07/03 14:10:04;;;;;;;1.27;0.87;;;;;;;;;;4969186;28;20280;-64
2022/07/03 14:12:34;;;;;;;1.00;0.80;;;;;;;;;;4947642;28;20668;-64
2022/07/03 14:15:06;;;;;;;1.87;1.10;;;;;;;;;;4960930;28;20201;-64
2022/07/03 14:17:40;;;;;;;1.57;1.00;;;;;;;;;;4987194;28;20201;-64
2022/07/03 14:20:11;;;;;;;1.30;0.90;;;;;;;;;;4982636;28;20230;-64
2022/07/03 14:22:44;;;;;;;1.13;0.90;;;;;;;;;;4978910;28;20200;-64
2022/07/03 14:25:19;;;;;;;0.80;0.80;;;;;;;;;;4985542;28;20613;-64
2022/07/03 14:33:28;;;;;;;1.30;1.20;;;;;;;;;;4987270;28;20185;-64
2022/07/03 14:36:02;;;;;;;1.40;1.13;;;;;;;;;;4989111;28;20196;-64
2022/07/03 14:38:36;;;;;;;2.40;1.07;;;;;;;;;;4988600;28;20211;-63
2022/07/03 14:41:05;;;;;;;1.93;1.50;;;;;;;;;;4981821;28;20611;-63
2022/07/03 14:43:37;;;;;;;1.50;1.03;;;;;;;;;;4972030;28;20627;-64
2022/07/03 14:46:10;;;;;;;3.90;1.30;;;;;;;;;;4988933;28;20708;-64
2022/07/03 14:48:43;;;;;;;7.70;1.30;;;;;;;;;;4990257;28;20203;-64
2022/07/03 14:51:13;;;;;;;6.23;1.30;;;;;;;;;;4984801;28;20569;-65
2022/07/03 14:53:45;;;;;;;2.23;0.90;;;;;;;;;;4984463;28;20203;-63
2022/07/03 14:56:22;;;;;;;1.60;0.97;;;;;;;;;;4988846;28;20197;-64
2022/07/03 14:58:59;;;;;;;1.10;1.00;;;;;;;;;;4987918;28;20581;-63
2022/07/03 15:01:36;;;;;;;3.80;1.17;;;;;;;;;;4989492;28;20192;-64
2022/07/03 15:04:38;;;;;;;2.03;1.10;;;;;;;;;;4986387;28;20240;-64
2022/07/03 15:07:09;;;;;;;3.17;0.97;;;;;;;;;;4978482;28;20216;-64
2022/07/03 15:09:39;;;;;;;1.37;0.90;;;;;;;;;;4972012;28;20227;-64
2022/07/03 15:14:58;;;;;;;1.53;0.90;;;;;;;;;;4982295;28;20210;-64
2022/07/03 15:17:29;;;;;;;1.17;0.77;;;;;;;;;;4970679;28;20204;-64
2022/07/03 15:20:03;;;;;;;1.97;0.90;;;;;;;;;;4989118;28;20681;-64
2022/07/03 15:22:33;;;;;;;1.73;1.00;;;;;;;;;;5001651;28;20208;-64
2022/07/03 15:25:02;;;;;;;1.43;0.90;;;;;;;;;;4969499;28;20275;-64
2022/07/03 15:27:34;;;;;;;1.93;1.00;;;;;;;;;;4997118;28;20207;-64
2022/07/03 15:30:08;;;;;;;1.20;0.87;;;;;;;;;;4989431;28;20204;-64
2022/07/03 15:32:43;;;;;;;1.90;1.00;;;;;;;;;;4970168;28;20196;-64
2022/07/03 15:35:15;;;;;;;0.80;0.80;;;;;;;;;;4987016;28;20200;-64
2022/07/03 15:37:56;;;;;;;1.27;1.00;;;;;;;;;;4971203;28;20219;-64
2022/07/03 15:40:34;;;;;;;1.20;0.97;;;;;;;;;;4983011;28;20299;-64
2022/07/03 15:43:23;;;;;;;1.53;1.00;;;;;;;;;;4968579;28;20652;-64
2022/07/03 15:46:10;;;;;;;1.33;1.13;;;;;;;;;;4987474;28;20589;-64
2022/07/03 15:48:43;;;;;;;1.60;0.90;;;;;;;;;;4984706;28;20220;-64